台湾桃園国際空港 の過去48時間の天気

台湾桃園国際空港 (Chiang Kai Shek)

現在時刻: 9/16 23:16 CST (9/16 15:16 UTC) 以下の時間は現地時間です。

過去48時間のMETAR気象情報
時間 風向 風速(m/s) 視程 気温(℃) 湿度(%) 気圧(hPa) 天気現象
16 23:00 6 10km以上 25 83 1009
16 22:30 5 10km以上 25 78 1009
16 22:00 5 10km以上 25 74 1009
16 21:30 5 10km以上 25 74 1009
16 21:00 6 10km以上 26 70 1009
16 20:30 6 10km以上 26 74 1009
16 20:00 6 10km以上 26 74 1009
16 19:30 東北東 5 10km以上 27 70 1008
16 19:00 東北東 8 10km以上 27 70 1008
16 18:30 北東 8 10km以上 27 74 1008
16 18:00 北東 8 10km以上 27 74 1008
16 17:30 北東 8 10km以上 27 74 1008
16 17:00 北東 8 10km以上 27 74 1007
16 16:30 北東 9 10km以上 27 79 1007
16 16:00 北東 9 10km以上 28 74 1007
16 15:30 北東 10 10km以上 29 70 1007
16 15:00 北東 10 10km以上 28 74 1007
16 14:30 北北東 9 10km以上 28 79 1007
16 14:00 北北東 8 10km以上 28 79 1007
16 13:30 北東 9 10km以上 28 79 1007
16 13:00 北北東 8 10km以上 29 74 1007
16 12:30 北東 9 10km以上 29 74 1007
16 12:00 北東 8 10km以上 28 79 1008
16 11:30 北東 9 10km以上 28 79 1008
16 11:00 北東 8 10km以上 27 84 1008
16 10:30 北東 7 8000m 27 84 1008 弱いしゅう雨
16 10:00 東北東 6 6000m 26 94 1008 弱いしゅう雨
16 09:35 北東 4 5000m 26 94 1008 弱いしゅう雨
16 09:00 3 8000m 26 94 1008 弱いしゅう雨
16 08:30 北東 3 6000m 26 94 1008 弱いしゅう雨
16 08:00 3 8000m 27 84 1008 弱いしゅう雨
16 07:52 3 8000m 27 84 1008 弱いしゅう雨
16 07:30 北北東 3 10km以上 27 84 1008
16 07:00 3 10km以上 27 84 1008
16 06:30 4 10km以上 27 84 1007
16 06:00 4 10km以上 27 79 1007
16 05:30 5 10km以上 27 79 1007
16 05:00 東北東 5 10km以上 27 79 1006
16 04:30 東北東 6 10km以上 27 79 1006
16 04:00 東北東 7 10km以上 27 79 1006
16 03:30 東北東 7 10km以上 27 79 1006
16 03:00 北東 6 10km以上 26 89 1006
16 02:30 東北東 6 10km以上 27 84 1007
16 02:00 北東 6 10km以上 26 89 1007
16 01:30 北東 5 10km以上 26 89 1007
16 01:00 東北東 4 10km以上 26 89 1007
16 00:30 5 10km以上 27 84 1008
16 00:00 5 10km以上 27 84 1008
15 23:30 東北東 5 10km以上 27 84 1008
15 23:00 5 10km以上 27 84 1008
15 22:30 東北東 6 10km以上 27 84 1008
15 22:00 東北東 6 10km以上 27 84 1008
15 21:30 東北東 5 10km以上 27 84 1008
15 21:00 5 10km以上 27 84 1008
15 20:30 東北東 5 10km以上 27 84 1008
15 20:00 東北東 6 10km以上 27 84 1008
15 19:30 北東 6 10km以上 27 84 1008
15 19:00 北東 7 10km以上 27 84 1007
15 18:30 北東 7 10km以上 27 84 1007
15 18:00 北東 7 10km以上 27 84 1007
15 17:30 北東 7 10km以上 28 79 1007
15 17:00 北東 7 10km以上 28 79 1007
15 16:30 北北東 7 10km以上 29 74 1007
15 16:00 北北東 8 10km以上 28 79 1007
15 15:30 北北東 8 10km以上 29 79 1007
15 15:00 北北東 7 10km以上 28 79 1007
15 14:30 北北東 8 10km以上 28 84 1007 弱いしゅう雨
15 14:00 北北東 6 10km以上 28 84 1007 弱いしゅう雨
15 13:54 北北東 6 10km以上 28 84 1007 弱いしゅう雨
15 13:30 北北東 5 10km以上 28 84 1007
15 13:11 2 10km以上 26 89 1007
15 12:48 南東 3 10km以上 25 94 1008
15 12:30 4 9000m 25 94 1008 弱いしゅう雨
15 12:00 南東 3 8000m 25 94 1008 弱いしゅう雨
15 11:30 南南東 4 6000m 25 94 1008 弱いしゅう雨
15 11:14 南南東 4 5000m 26 89 1008 しゅう雨
15 11:12 南南東 3 5000m 26 94 1008 弱いしゅう雨
15 10:43 北東 5 7000m 27 89 1008 弱いしゅう雨
15 10:31 東北東 4 8000m 26 94 1008 弱いしゅう雨
15 10:00 南南西 3 8000m 25 94 1009 弱いしゅう雨
15 09:42 南南東 4 7000m 25 94 1009 弱いしゅう雨
15 09:30 不定 1 7000m 24 100 1009 弱いしゅう雨
15 09:19 東北東 2 7000m 24 100 1009 弱いしゅう雨
15 09:09 東北東 6 6000m 24 94 1009 しゅう雨
15 09:04 北東 7 3000m 25 94 1009 強いしゅう雨
15 08:52 北北東 5 10km以上 28 84 1009 弱いしゅう雨
15 08:30 北北東 5 10km以上 28 79 1009
15 08:00 北北東 4 10km以上 28 79 1008
15 07:30 不定 1 10km以上 28 79 1008
15 07:00 東南東 2 10km以上 27 79 1008
15 06:30 南東 3 10km以上 26 84 1008
15 06:00 南東 2 10km以上 26 84 1008
15 05:30 東南東 3 10km以上 26 84 1008
15 05:00 東北東 4 10km以上 26 84 1008
15 04:30 3 10km以上 26 84 1008
15 04:00 東南東 3 10km以上 26 84 1008
15 03:30 4 10km以上 26 84 1008
RCTP 161500Z 08012KT 9999 FEW012 SCT030 25/22 Q1009 NOSIG RMK A2980
RCTP 161430Z 09010KT 9999 FEW012 SCT030 25/21 Q1009 NOSIG RMK A2980
RCTP 161400Z 09010KT 9999 FEW012 SCT030 25/20 Q1009 NOSIG RMK A2981
RCTP 161330Z 09010KT 9999 FEW012 SCT030 25/20 Q1009 NOSIG RMK A2981
RCTP 161300Z 08012KT 9999 FEW012 SCT030 26/20 Q1009 NOSIG RMK A2981
RCTP 161230Z 09012KT 9999 FEW012 SCT030 26/21 Q1009 NOSIG RMK A2981
RCTP 161200Z 08012KT 9999 FEW012 SCT025 26/21 Q1009 NOSIG RMK A2980
RCTP 161130Z 07010KT 9999 FEW012 BKN025 BKN040 27/21 Q1008 NOSIG RMK A2979
RCTP 161100Z 06015KT 9999 FEW012 BKN025 BKN040 27/21 Q1008 NOSIG RMK A2979
RCTP 161030Z 05016KT 9999 FEW012 BKN025 BKN040 27/22 Q1008 NOSIG RMK A2978
RCTP 161000Z 05015KT 9999 FEW012 BKN025 BKN040 27/22 Q1008 NOSIG RMK A2978
RCTP 160930Z 04015KT 9999 FEW012 BKN025 BKN040 27/22 Q1008 NOSIG RMK A2977
RCTP 160900Z 04016KT 9999 FEW012 BKN020 BKN035 27/22 Q1007 NOSIG RMK A2976
RCTP 160830Z 04017KT 9999 FEW012 BKN020 BKN035 27/23 Q1007 NOSIG RMK A2976
RCTP 160800Z 04017KT 9999 FEW012 BKN020 BKN035 28/23 Q1007 NOSIG RMK A2976
RCTP 160730Z 04019KT 9999 FEW012 BKN020 BKN035 29/23 Q1007 NOSIG RMK A2975
RCTP 160700Z 04019KT 9999 FEW012 BKN020 BKN035 28/23 Q1007 NOSIG RMK A2974
RCTP 160630Z 03017KT 9999 FEW012 BKN020 BKN035 28/24 Q1007 NOSIG RMK A2974
RCTP 160600Z 03015KT 9999 FEW012 BKN020 BKN035 28/24 Q1007 NOSIG RMK A2974
RCTP 160530Z 04017KT 9999 FEW012 BKN020 BKN035 28/24 Q1007 NOSIG RMK A2975
RCTP 160500Z 03016KT 9999 FEW012 BKN020 BKN035 29/24 Q1007 NOSIG RMK A2975
RCTP 160430Z 04017KT 9999 FEW012 BKN020 BKN035 29/24 Q1007 NOSIG RMK A2976
RCTP 160400Z 04016KT 9999 FEW012 BKN020 BKN035 28/24 Q1008 NOSIG RMK A2978
RCTP 160330Z 04018KT 9999 FEW012 BKN020 BKN035 28/24 Q1008 NOSIG RMK A2978
RCTP 160300Z 04015KT 9999 FEW012 BKN020 BKN035 27/24 Q1008 NOSIG RMK A2978
RCTP 160230Z 04013KT 8000 -SHRA SCT010 BKN025 27/24 Q1008 NOSIG RMK A2978
RCTP 160200Z 06012KT 6000 -SHRA SCT010 FEW016TCU BKN030 26/25 Q1008 NOSIG RMK TCU NW-N-NE A2978 RA AMT 2.0MM
RCTP 160135Z 04008KT 5000 -SHRA SCT010 FEW016TCU BKN030 26/25 Q1008 NOSIG RMK TCU NW-N-NE A2979
RCTP 160100Z 08006KT 030V120 8000 -SHRA FEW015 FEW018TCU BKN040 26/25 Q1008 NOSIG RMK TCU NW-N-NE A2978 RA AMT 0.4MM
RCTP 160030Z 04005KT 6000 -SHRA FEW015 FEW018TCU BKN040 26/25 Q1008 NOSIG RMK TCU NW-N-NE A2979
RCTP 160000Z 01005KT 8000 -SHRA FEW015 FEW018TCU BKN040 27/24 Q1008 NOSIG RMK TCU NW-N-NE A2978
RCTP 152352Z 01005KT 8000 -SHRA FEW015 FEW018TCU BKN040 27/24 Q1008 NOSIG RMK TCU NW-N-NE A2977
RCTP 152330Z 03005KT 350V090 9999 FEW015 FEW018TCU BKN060 27/24 Q1008 TEMPO 5000 SHRA RMK TCU N A2977
RCTP 152300Z 08006KT 050V110 9999 FEW015 BKN060 27/24 Q1008 TEMPO 5000 SHRA RMK A2977
RCTP 152230Z 09007KT 9999 FEW015 BKN060 27/24 Q1007 TEMPO 5000 SHRA RMK A2975
RCTP 152200Z 08007KT 9999 FEW015 BKN060 27/23 Q1007 TEMPO 5000 SHRA RMK A2975
RCTP 152130Z 08009KT 9999 FEW015 BKN050 BKN120 27/23 Q1007 NOSIG RMK A2974
RCTP 152100Z 07010KT 9999 FEW015 BKN050 BKN120 27/23 Q1006 NOSIG RMK A2973
RCTP 152030Z 06011KT 9999 FEW015 BKN050 BKN120 27/23 Q1006 NOSIG RMK A2973
RCTP 152000Z 07013KT 9999 FEW015 BKN050 BKN120 27/23 Q1006 NOSIG RMK A2973
RCTP 151930Z 06013KT 9999 FEW015 BKN050 BKN120 27/23 Q1006 NOSIG RMK A2973
RCTP 151900Z 05011KT 9999 FEW015 BKN050 BKN120 26/24 Q1006 NOSIG RMK A2973
RCTP 151830Z 06012KT 9999 FEW015 BKN050 BKN120 27/24 Q1007 NOSIG RMK A2974
RCTP 151800Z 05012KT 9999 FEW015 SCT050 BKN150 26/24 Q1007 NOSIG RMK A2975
RCTP 151730Z 05009KT 9999 FEW015 SCT050 BKN150 26/24 Q1007 NOSIG RMK A2975
RCTP 151700Z 07008KT 9999 FEW015 SCT050 26/24 Q1007 NOSIG RMK A2976
RCTP 151630Z 08009KT 9999 FEW015 BKN050 27/24 Q1008 NOSIG RMK A2977
RCTP 151600Z 08010KT 050V110 9999 FEW015 27/24 Q1008 NOSIG RMK A2978
RCTP 151530Z 07009KT 9999 FEW015 27/24 Q1008 NOSIG RMK A2978
RCTP 151500Z 08009KT 9999 FEW015 SCT120 27/24 Q1008 NOSIG RMK A2978
RCTP 151430Z 07012KT 9999 FEW015 SCT120 27/24 Q1008 NOSIG RMK A2978
RCTP 151400Z 07011KT 9999 FEW012 SCT022 27/24 Q1008 NOSIG RMK A2978
RCTP 151330Z 07010KT 9999 FEW012 SCT020 27/24 Q1008 NOSIG RMK A2978
RCTP 151300Z 08010KT 9999 FEW012 SCT020 27/24 Q1008 NOSIG RMK A2979
RCTP 151230Z 07010KT 9999 FEW012 SCT018 BKN025 27/24 Q1008 NOSIG RMK A2978
RCTP 151200Z 06011KT 9999 FEW012 SCT018 BKN025 27/24 Q1008 NOSIG RMK A2978
RCTP 151130Z 05011KT 9999 FEW012 SCT018 BKN025 27/24 Q1008 NOSIG RMK A2977
RCTP 151100Z 05013KT 9999 FEW012 SCT018 BKN025 27/24 Q1007 NOSIG RMK A2976
RCTP 151030Z 04013KT 9999 FEW012 BKN022 27/24 Q1007 NOSIG RMK A2976
RCTP 151000Z 04013KT 9999 FEW012 BKN018 27/24 Q1007 NOSIG RMK A2975
RCTP 150930Z 04013KT 9999 FEW012 BKN018 28/24 Q1007 NOSIG RMK A2975
RCTP 150900Z 04013KT 9999 FEW012 SCT018 BKN030 28/24 Q1007 NOSIG RMK A2975
RCTP 150830Z 03013KT 9999 FEW012 SCT018 FEW020TCU BKN030 29/24 Q1007 NOSIG RMK TCU SE-S A2975
RCTP 150800Z 03015KT 9999 FEW012 SCT018 FEW020TCU BKN030 28/24 Q1007 NOSIG RMK TCU SE-S A2974
RCTP 150730Z 03016KT 9999 FEW012 SCT018 FEW020TCU BKN030 29/25 Q1007 NOSIG RMK TCU SE-S A2974
RCTP 150700Z 03014KT 9999 FEW008 BKN018 FEW020TCU BKN030 28/24 Q1007 NOSIG RMK TCU E-S A2974
RCTP 150630Z 03015KT 9999 -SHRA FEW008 BKN015 BKN030 28/25 Q1007 NOSIG RMK A2974
RCTP 150600Z 03011KT 360V070 9999 -SHRA FEW008 BKN015 BKN030 28/25 Q1007 WS ALL RWY NOSIG RMK A2975
RCTP 150554Z 03012KT 360V070 9999 -SHRA FEW008 BKN015 BKN030 28/25 Q1007 WS ALL RWY NOSIG RMK A2975
RCTP 150530Z 02010KT 350V050 9999 FEW008 BKN015 BKN030 28/25 Q1007 WS ALL RWY NOSIG RMK A2975
RCTP 150511Z 08004KT 040V120 9999 FEW008 BKN015 BKN030 26/24 Q1007 WS ALL RWY NOSIG RMK A2976
RCTP 150448Z 14006KT 090V150 9999 SCT008 BKN012 BKN030 25/24 Q1008 WS R05L NOSIG RMK A2977
RCTP 150430Z 18007KT 150V210 9000 -SHRA SCT005 BKN011 FEW015CB BKN025 25/24 Q1008 WS ALL RWY NOSIG RMK CB SE A2978
RCTP 150400Z 13006KT 100V180 8000 3500S -SHRA SCT005 BKN010 FEW015CB BKN025 25/24 Q1008 WS ALL RWY TEMPO 5000 SHRA RMK CB S A2979 RA AMT 0.4MM
RCTP 150330Z 16007KT 130V200 6000 2500S -SHRA SCT006 BKN010 FEW015CB BKN025 25/24 Q1008 RESHRA WS ALL RWY NOSIG RMK CB E AND S-SW A2978
RCTP 150314Z 15007KT 110V190 5000 1500S SHRA SCT006 BKN010 FEW015CB BKN025 26/24 Q1008 WS ALL RWY NOSIG RMK CB SE-S-SW A2978
RCTP 150312Z 16005KT 130V190 5000 1500S -SHRA SCT008 BKN012 FEW015CB BKN030 26/25 Q1008 WS ALL RWY NOSIG RMK CB SE-S-SW A2978
RCTP 150243Z 04009KT 020V080 7000 -SHRA SCT008 BKN012 BKN030 27/25 Q1008 RESHRA WS ALL RWY NOSIG RMK A2979
RCTP 150231Z 07007KT 040V120 8000 -SHRA SCT009 BKN015 BKN030 26/25 Q1008 WS ALL RWY TEMPO 5000 SHRA RMK A2979
RCTP 150200Z 20006KT 170V250 8000 -SHRA SCT010 BKN015 BKN030 25/24 Q1009 WS R05L TEMPO 5000 SHRA RMK A2980 RA AMT 4.6MM
RCTP 150142Z 15007KT 110V180 7000 -SHRA SCT010 BKN016 BKN060 25/24 Q1009 WS R05L TEMPO 5000 SHRA RMK A2980
RCTP 150130Z VRB02KT 7000 -SHRA SCT010 BKN018 BKN060 24/24 Q1009 RESHRA NOSIG RMK A2980
RCTP 150119Z 06003KT 320V110 7000 -SHRA SCT010 BKN018 BKN060 24/24 Q1009 RESHRA WS R05L NOSIG RMK A2980
RCTP 150109Z 06012KT 6000 SHRA SCT010 BKN018 BKN060 24/23 Q1009 WS R05L NOSIG RMK A2981
RCTP 150104Z 05014KT 010V070 3000 +SHRA SCT010 BKN018 BKN060 25/24 Q1009 WS R05L NOSIG RMK A2981
RCTP 150052Z 03010KT 9999 -SHRA FEW010 BKN018 BKN070 28/25 Q1009 NOSIG RMK A2980
RCTP 150030Z 02009KT 9999 FEW010 BKN018 BKN070 28/24 Q1009 NOSIG RMK A2980
RCTP 150000Z 03008KT 9999 FEW010 BKN018 28/24 Q1008 NOSIG RMK A2979
RCTP 142330Z VRB02KT 9999 FEW010 BKN019 28/24 Q1008 NOSIG RMK A2979
RCTP 142300Z 11004KT 080V140 9999 FEW015 27/23 Q1008 NOSIG RMK A2979
RCTP 142230Z 14005KT 9999 FEW015 26/23 Q1008 NOSIG RMK A2978
RCTP 142200Z 13004KT 9999 FEW015 26/23 Q1008 NOSIG RMK A2978
RCTP 142130Z 11005KT 9999 FEW015 26/23 Q1008 NOSIG RMK A2978
RCTP 142100Z 07007KT 9999 FEW015 26/23 Q1008 NOSIG RMK A2977
RCTP 142030Z 08006KT 9999 FEW015 26/23 Q1008 NOSIG RMK A2977
RCTP 142000Z 11006KT 9999 FEW015 26/23 Q1008 NOSIG RMK A2977
RCTP 141930Z 09008KT 9999 FEW015 26/23 Q1008 NOSIG RMK A2977